sensor_id;sensor_type;location;lat;lon;timestamp;P1;durP1;ratioP1;P2;durP2;ratioP2
62679;SDS011;68213;40.528;44.712;2023-05-29T00:00:19;23.65;;;4.60;;
62679;SDS011;68213;40.528;44.712;2023-05-29T00:01:21;23.95;;;4.78;;
62679;SDS011;68213;40.528;44.712;2023-05-29T00:02:24;24.55;;;4.22;;
62679;SDS011;68213;40.528;44.712;2023-05-29T00:03:25;24.25;;;4.93;;
62679;SDS011;68213;40.528;44.712;2023-05-29T00:04:28;23.92;;;5.25;;
62679;SDS011;68213;40.528;44.712;2023-05-29T00:05:29;31.52;;;5.65;;
62679;SDS011;68213;40.528;44.712;2023-05-29T00:06:30;25.67;;;4.97;;
62679;SDS011;68213;40.528;44.712;2023-05-29T00:07:33;27.42;;;4.90;;
62679;SDS011;68213;40.528;44.712;2023-05-29T00:08:34;23.02;;;4.68;;
62679;SDS011;68213;40.528;44.712;2023-05-29T00:09:35;19.33;;;4.20;;
62679;SDS011;68213;40.528;44.712;2023-05-29T00:10:36;22.60;;;4.90;;
62679;SDS011;68213;40.528;44.712;2023-05-29T00:11:37;26.33;;;4.70;;
62679;SDS011;68213;40.528;44.712;2023-05-29T00:12:38;23.83;;;4.18;;
62679;SDS011;68213;40.528;44.712;2023-05-29T00:13:39;24.90;;;5.15;;
62679;SDS011;68213;40.528;44.712;2023-05-29T00:14:40;22.70;;;4.75;;
62679;SDS011;68213;40.528;44.712;2023-05-29T00:15:40;28.35;;;4.63;;
62679;SDS011;68213;40.528;44.712;2023-05-29T00:16:41;24.67;;;4.80;;
62679;SDS011;68213;40.528;44.712;2023-05-29T00:17:44;18.67;;;4.63;;
62679;SDS011;68213;40.528;44.712;2023-05-29T00:18:47;17.52;;;4.20;;
62679;SDS011;68213;40.528;44.712;2023-05-29T00:19:48;28.92;;;5.95;;
62679;SDS011;68213;40.528;44.712;2023-05-29T00:20:49;28.40;;;4.63;;
62679;SDS011;68213;40.528;44.712;2023-05-29T00:21:49;24.08;;;4.68;;
62679;SDS011;68213;40.528;44.712;2023-05-29T00:22:50;14.15;;;4.35;;
62679;SDS011;68213;40.528;44.712;2023-05-29T00:23:50;25.17;;;4.82;;
62679;SDS011;68213;40.528;44.712;2023-05-29T00:24:51;27.42;;;5.40;;
62679;SDS011;68213;40.528;44.712;2023-05-29T00:25:52;25.88;;;5.15;;
62679;SDS011;68213;40.528;44.712;2023-05-29T00:26:53;24.83;;;4.97;;
62679;SDS011;68213;40.528;44.712;2023-05-29T00:27:53;27.23;;;4.82;;
62679;SDS011;68213;40.528;44.712;2023-05-29T00:28:54;20.48;;;4.40;;
62679;SDS011;68213;40.528;44.712;2023-05-29T00:29:55;23.42;;;5.10;;
62679;SDS011;68213;40.528;44.712;2023-05-29T00:30:55;26.48;;;4.63;;
62679;SDS011;68213;40.528;44.712;2023-05-29T00:31:56;28.63;;;4.95;;
62679;SDS011;68213;40.528;44.712;2023-05-29T00:32:57;16.58;;;3.97;;
62679;SDS011;68213;40.528;44.712;2023-05-29T00:33:57;23.67;;;4.28;;
62679;SDS011;68213;40.528;44.712;2023-05-29T00:35:00;22.52;;;4.38;;
62679;SDS011;68213;40.528;44.712;2023-05-29T00:36:01;24.98;;;4.55;;
62679;SDS011;68213;40.528;44.712;2023-05-29T00:37:01;19.10;;;4.78;;
62679;SDS011;68213;40.528;44.712;2023-05-29T00:38:03;18.35;;;4.03;;
62679;SDS011;68213;40.528;44.712;2023-05-29T00:39:03;21.00;;;4.28;;
62679;SDS011;68213;40.528;44.712;2023-05-29T00:40:04;19.08;;;4.10;;
62679;SDS011;68213;40.528;44.712;2023-05-29T00:41:05;16.13;;;4.10;;
62679;SDS011;68213;40.528;44.712;2023-05-29T00:42:06;22.95;;;4.35;;
62679;SDS011;68213;40.528;44.712;2023-05-29T00:43:10;30.33;;;4.82;;
62679;SDS011;68213;40.528;44.712;2023-05-29T00:44:11;28.25;;;4.32;;
62679;SDS011;68213;40.528;44.712;2023-05-29T00:45:12;23.95;;;4.40;;
62679;SDS011;68213;40.528;44.712;2023-05-29T00:46:14;23.52;;;4.63;;
62679;SDS011;68213;40.528;44.712;2023-05-29T00:47:16;18.35;;;3.95;;
62679;SDS011;68213;40.528;44.712;2023-05-29T00:48:17;27.00;;;4.53;;
62679;SDS011;68213;40.528;44.712;2023-05-29T00:49:17;20.95;;;4.43;;
62679;SDS011;68213;40.528;44.712;2023-05-29T00:50:20;23.45;;;4.70;;
62679;SDS011;68213;40.528;44.712;2023-05-29T00:51:21;23.98;;;4.90;;
62679;SDS011;68213;40.528;44.712;2023-05-29T00:52:23;27.10;;;4.40;;
62679;SDS011;68213;40.528;44.712;2023-05-29T00:53:26;25.60;;;4.20;;
62679;SDS011;68213;40.528;44.712;2023-05-29T00:54:28;23.08;;;4.35;;
62679;SDS011;68213;40.528;44.712;2023-05-29T00:55:32;14.60;;;4.00;;
62679;SDS011;68213;40.528;44.712;2023-05-29T00:56:34;20.33;;;4.32;;
62679;SDS011;68213;40.528;44.712;2023-05-29T00:57:35;19.88;;;4.13;;
62679;SDS011;68213;40.528;44.712;2023-05-29T00:58:40;21.02;;;4.45;;
62679;SDS011;68213;40.528;44.712;2023-05-29T00:59:41;24.27;;;4.82;;
62679;SDS011;68213;40.528;44.712;2023-05-29T01:00:43;21.95;;;4.47;;
62679;SDS011;68213;40.528;44.712;2023-05-29T01:01:44;22.55;;;4.00;;
62679;SDS011;68213;40.528;44.712;2023-05-29T01:02:44;20.58;;;4.30;;
62679;SDS011;68213;40.528;44.712;2023-05-29T01:03:45;21.92;;;4.78;;
62679;SDS011;68213;40.528;44.712;2023-05-29T01:04:49;25.30;;;4.90;;
62679;SDS011;68213;40.528;44.712;2023-05-29T01:05:50;21.60;;;4.22;;
62679;SDS011;68213;40.528;44.712;2023-05-29T01:06:52;20.90;;;4.70;;
62679;SDS011;68213;40.528;44.712;2023-05-29T01:07:53;19.17;;;4.20;;
62679;SDS011;68213;40.528;44.712;2023-05-29T01:08:53;24.85;;;4.35;;
62679;SDS011;68213;40.528;44.712;2023-05-29T01:09:54;22.17;;;4.20;;
62679;SDS011;68213;40.528;44.712;2023-05-29T01:10:56;24.05;;;4.15;;
62679;SDS011;68213;40.528;44.712;2023-05-29T01:13:44;23.33;;;4.05;;
62679;SDS011;68213;40.528;44.712;2023-05-29T01:16:25;21.50;;;3.75;;
62679;SDS011;68213;40.528;44.712;2023-05-29T01:18:57;13.57;;;3.75;;
62679;SDS011;68213;40.528;44.712;2023-05-29T01:24:27;23.15;;;4.00;;
62679;SDS011;68213;40.528;44.712;2023-05-29T01:27:11;16.65;;;3.78;;
62679;SDS011;68213;40.528;44.712;2023-05-29T01:28:18;15.75;;;3.58;;
62679;SDS011;68213;40.528;44.712;2023-05-29T01:29:26;18.52;;;3.95;;
62679;SDS011;68213;40.528;44.712;2023-05-29T01:30:31;22.13;;;4.50;;
62679;SDS011;68213;40.528;44.712;2023-05-29T01:31:33;22.98;;;4.00;;
62679;SDS011;68213;40.528;44.712;2023-05-29T01:32:35;16.73;;;4.25;;
62679;SDS011;68213;40.528;44.712;2023-05-29T01:33:40;22.92;;;4.20;;
62679;SDS011;68213;40.528;44.712;2023-05-29T01:34:41;21.80;;;4.15;;
62679;SDS011;68213;40.528;44.712;2023-05-29T01:35:42;17.00;;;4.13;;
62679;SDS011;68213;40.528;44.712;2023-05-29T01:36:42;21.05;;;4.05;;
62679;SDS011;68213;40.528;44.712;2023-05-29T01:37:43;18.15;;;4.10;;
62679;SDS011;68213;40.528;44.712;2023-05-29T01:38:44;21.98;;;3.85;;
62679;SDS011;68213;40.528;44.712;2023-05-29T01:39:45;27.40;;;4.15;;
62679;SDS011;68213;40.528;44.712;2023-05-29T01:40:45;20.85;;;3.90;;
62679;SDS011;68213;40.528;44.712;2023-05-29T01:41:50;23.48;;;4.55;;
62679;SDS011;68213;40.528;44.712;2023-05-29T01:42:53;18.80;;;4.13;;
62679;SDS011;68213;40.528;44.712;2023-05-29T01:43:54;20.27;;;4.25;;
62679;SDS011;68213;40.528;44.712;2023-05-29T01:44:59;27.23;;;4.72;;
62679;SDS011;68213;40.528;44.712;2023-05-29T01:46:00;18.55;;;4.38;;
62679;SDS011;68213;40.528;44.712;2023-05-29T01:47:01;22.83;;;4.35;;
62679;SDS011;68213;40.528;44.712;2023-05-29T01:48:03;17.55;;;3.83;;
62679;SDS011;68213;40.528;44.712;2023-05-29T01:49:04;18.20;;;3.88;;
62679;SDS011;68213;40.528;44.712;2023-05-29T01:50:06;25.77;;;4.10;;
62679;SDS011;68213;40.528;44.712;2023-05-29T01:51:08;26.13;;;5.53;;
62679;SDS011;68213;40.528;44.712;2023-05-29T01:52:12;19.15;;;3.80;;
62679;SDS011;68213;40.528;44.712;2023-05-29T01:53:13;26.13;;;3.83;;
62679;SDS011;68213;40.528;44.712;2023-05-29T01:54:13;19.60;;;4.10;;
62679;SDS011;68213;40.528;44.712;2023-05-29T01:55:15;18.55;;;3.67;;
62679;SDS011;68213;40.528;44.712;2023-05-29T01:56:15;18.98;;;4.00;;
62679;SDS011;68213;40.528;44.712;2023-05-29T01:57:16;18.75;;;3.72;;
62679;SDS011;68213;40.528;44.712;2023-05-29T01:58:18;18.25;;;4.10;;
62679;SDS011;68213;40.528;44.712;2023-05-29T01:59:21;21.38;;;3.90;;
62679;SDS011;68213;40.528;44.712;2023-05-29T02:00:23;20.25;;;4.20;;
62679;SDS011;68213;40.528;44.712;2023-05-29T02:01:26;22.40;;;3.90;;
62679;SDS011;68213;40.528;44.712;2023-05-29T02:02:27;20.40;;;4.10;;
62679;SDS011;68213;40.528;44.712;2023-05-29T02:03:27;23.30;;;3.85;;
62679;SDS011;68213;40.528;44.712;2023-05-29T02:04:31;24.73;;;4.20;;
62679;SDS011;68213;40.528;44.712;2023-05-29T02:05:32;18.70;;;4.00;;
62679;SDS011;68213;40.528;44.712;2023-05-29T02:06:32;20.10;;;4.20;;
62679;SDS011;68213;40.528;44.712;2023-05-29T02:07:36;22.35;;;3.60;;
62679;SDS011;68213;40.528;44.712;2023-05-29T02:08:41;14.15;;;3.83;;
62679;SDS011;68213;40.528;44.712;2023-05-29T02:09:41;18.58;;;4.20;;
62679;SDS011;68213;40.528;44.712;2023-05-29T02:10:42;23.50;;;4.82;;
62679;SDS011;68213;40.528;44.712;2023-05-29T02:11:43;15.27;;;3.60;;
62679;SDS011;68213;40.528;44.712;2023-05-29T02:12:45;21.98;;;4.20;;
62679;SDS011;68213;40.528;44.712;2023-05-29T02:13:46;19.80;;;3.97;;
62679;SDS011;68213;40.528;44.712;2023-05-29T02:14:47;14.68;;;3.85;;
62679;SDS011;68213;40.528;44.712;2023-05-29T02:15:48;24.00;;;4.57;;
62679;SDS011;68213;40.528;44.712;2023-05-29T02:16:48;23.83;;;4.43;;
62679;SDS011;68213;40.528;44.712;2023-05-29T02:17:49;40.35;;;4.60;;
62679;SDS011;68213;40.528;44.712;2023-05-29T02:18:50;22.92;;;4.30;;
62679;SDS011;68213;40.528;44.712;2023-05-29T02:20:11;29.30;;;4.45;;
62679;SDS011;68213;40.528;44.712;2023-05-29T02:21:12;20.92;;;4.53;;
62679;SDS011;68213;40.528;44.712;2023-05-29T02:22:13;22.88;;;4.32;;
62679;SDS011;68213;40.528;44.712;2023-05-29T02:23:14;20.63;;;4.18;;
62679;SDS011;68213;40.528;44.712;2023-05-29T02:24:15;26.75;;;4.68;;
62679;SDS011;68213;40.528;44.712;2023-05-29T02:25:16;25.17;;;4.38;;
62679;SDS011;68213;40.528;44.712;2023-05-29T02:26:16;24.92;;;4.25;;
62679;SDS011;68213;40.528;44.712;2023-05-29T02:27:17;21.17;;;4.05;;
62679;SDS011;68213;40.528;44.712;2023-05-29T02:28:17;17.67;;;4.10;;
62679;SDS011;68213;40.528;44.712;2023-05-29T02:29:18;22.40;;;4.00;;
62679;SDS011;68213;40.528;44.712;2023-05-29T02:30:19;26.02;;;4.70;;
62679;SDS011;68213;40.528;44.712;2023-05-29T02:31:19;25.83;;;4.32;;
62679;SDS011;68213;40.528;44.712;2023-05-29T02:32:20;22.73;;;5.15;;
62679;SDS011;68213;40.528;44.712;2023-05-29T02:33:22;16.35;;;4.20;;
62679;SDS011;68213;40.528;44.712;2023-05-29T02:34:23;17.27;;;3.85;;
62679;SDS011;68213;40.528;44.712;2023-05-29T02:35:23;28.98;;;4.57;;
62679;SDS011;68213;40.528;44.712;2023-05-29T02:36:24;22.33;;;4.10;;
62679;SDS011;68213;40.528;44.712;2023-05-29T02:37:25;20.75;;;4.68;;
62679;SDS011;68213;40.528;44.712;2023-05-29T02:38:26;32.72;;;4.95;;
62679;SDS011;68213;40.528;44.712;2023-05-29T02:39:27;27.13;;;4.40;;
62679;SDS011;68213;40.528;44.712;2023-05-29T02:40:27;21.55;;;4.50;;
62679;SDS011;68213;40.528;44.712;2023-05-29T02:41:28;26.75;;;4.10;;
62679;SDS011;68213;40.528;44.712;2023-05-29T02:42:29;20.88;;;4.50;;
62679;SDS011;68213;40.528;44.712;2023-05-29T02:43:29;20.92;;;3.85;;
62679;SDS011;68213;40.528;44.712;2023-05-29T02:44:30;26.98;;;4.47;;
62679;SDS011;68213;40.528;44.712;2023-05-29T02:45:31;27.70;;;4.18;;
62679;SDS011;68213;40.528;44.712;2023-05-29T02:46:31;23.15;;;4.63;;
62679;SDS011;68213;40.528;44.712;2023-05-29T02:47:32;22.80;;;5.00;;
62679;SDS011;68213;40.528;44.712;2023-05-29T02:48:34;18.75;;;4.13;;
62679;SDS011;68213;40.528;44.712;2023-05-29T02:49:35;23.20;;;4.55;;
62679;SDS011;68213;40.528;44.712;2023-05-29T02:50:36;24.88;;;4.68;;
62679;SDS011;68213;40.528;44.712;2023-05-29T02:51:36;26.02;;;4.85;;
62679;SDS011;68213;40.528;44.712;2023-05-29T02:52:39;22.48;;;4.40;;
62679;SDS011;68213;40.528;44.712;2023-05-29T02:53:40;25.40;;;4.30;;
62679;SDS011;68213;40.528;44.712;2023-05-29T02:54:41;18.38;;;3.83;;
62679;SDS011;68213;40.528;44.712;2023-05-29T02:55:42;28.98;;;4.68;;
62679;SDS011;68213;40.528;44.712;2023-05-29T02:56:43;22.55;;;4.18;;
62679;SDS011;68213;40.528;44.712;2023-05-29T02:57:44;28.50;;;4.30;;
62679;SDS011;68213;40.528;44.712;2023-05-29T02:58:44;30.30;;;4.70;;
62679;SDS011;68213;40.528;44.712;2023-05-29T02:59:45;16.58;;;4.13;;
62679;SDS011;68213;40.528;44.712;2023-05-29T03:00:46;27.77;;;5.00;;
62679;SDS011;68213;40.528;44.712;2023-05-29T03:01:47;25.48;;;4.63;;
62679;SDS011;68213;40.528;44.712;2023-05-29T03:02:48;34.58;;;5.30;;
62679;SDS011;68213;40.528;44.712;2023-05-29T03:03:49;30.25;;;4.90;;
62679;SDS011;68213;40.528;44.712;2023-05-29T03:04:50;26.58;;;4.68;;
62679;SDS011;68213;40.528;44.712;2023-05-29T03:05:53;27.92;;;4.38;;
62679;SDS011;68213;40.528;44.712;2023-05-29T03:06:54;29.10;;;4.90;;
62679;SDS011;68213;40.528;44.712;2023-05-29T03:07:54;26.27;;;4.95;;
62679;SDS011;68213;40.528;44.712;2023-05-29T03:08:55;26.42;;;4.85;;
62679;SDS011;68213;40.528;44.712;2023-05-29T03:09:56;29.25;;;4.85;;
62679;SDS011;68213;40.528;44.712;2023-05-29T03:10:57;26.75;;;4.63;;
62679;SDS011;68213;40.528;44.712;2023-05-29T03:11:58;31.83;;;4.70;;
62679;SDS011;68213;40.528;44.712;2023-05-29T03:13:03;23.88;;;4.88;;
62679;SDS011;68213;40.528;44.712;2023-05-29T03:14:04;27.80;;;4.90;;
62679;SDS011;68213;40.528;44.712;2023-05-29T03:15:05;28.27;;;4.45;;
62679;SDS011;68213;40.528;44.712;2023-05-29T03:16:06;36.92;;;6.15;;
62679;SDS011;68213;40.528;44.712;2023-05-29T03:17:08;23.98;;;4.57;;
62679;SDS011;68213;40.528;44.712;2023-05-29T03:18:08;24.60;;;4.90;;
62679;SDS011;68213;40.528;44.712;2023-05-29T03:19:09;28.77;;;5.10;;
62679;SDS011;68213;40.528;44.712;2023-05-29T03:20:10;30.17;;;5.28;;
62679;SDS011;68213;40.528;44.712;2023-05-29T03:21:11;25.20;;;4.50;;
62679;SDS011;68213;40.528;44.712;2023-05-29T03:22:12;33.65;;;5.13;;
62679;SDS011;68213;40.528;44.712;2023-05-29T03:23:13;24.98;;;4.50;;
62679;SDS011;68213;40.528;44.712;2023-05-29T03:24:14;30.17;;;4.60;;
62679;SDS011;68213;40.528;44.712;2023-05-29T03:25:15;32.97;;;5.72;;
62679;SDS011;68213;40.528;44.712;2023-05-29T03:26:16;31.63;;;4.70;;
62679;SDS011;68213;40.528;44.712;2023-05-29T03:27:17;30.17;;;5.20;;
62679;SDS011;68213;40.528;44.712;2023-05-29T03:28:18;31.00;;;5.18;;
62679;SDS011;68213;40.528;44.712;2023-05-29T03:29:18;28.27;;;5.18;;
62679;SDS011;68213;40.528;44.712;2023-05-29T03:30:19;29.55;;;5.35;;
62679;SDS011;68213;40.528;44.712;2023-05-29T03:31:20;36.15;;;5.72;;
62679;SDS011;68213;40.528;44.712;2023-05-29T03:32:21;33.70;;;5.25;;
62679;SDS011;68213;40.528;44.712;2023-05-29T03:33:22;33.38;;;5.43;;
62679;SDS011;68213;40.528;44.712;2023-05-29T03:34:22;29.77;;;5.68;;
62679;SDS011;68213;40.528;44.712;2023-05-29T03:35:23;21.20;;;4.65;;
62679;SDS011;68213;40.528;44.712;2023-05-29T03:36:24;30.10;;;5.10;;
62679;SDS011;68213;40.528;44.712;2023-05-29T03:37:27;29.48;;;5.20;;
62679;SDS011;68213;40.528;44.712;2023-05-29T03:38:28;29.00;;;5.15;;
62679;SDS011;68213;40.528;44.712;2023-05-29T03:39:28;30.92;;;5.57;;
62679;SDS011;68213;40.528;44.712;2023-05-29T03:40:29;23.88;;;5.72;;
62679;SDS011;68213;40.528;44.712;2023-05-29T03:41:30;38.72;;;5.55;;
62679;SDS011;68213;40.528;44.712;2023-05-29T03:42:30;28.35;;;5.40;;
62679;SDS011;68213;40.528;44.712;2023-05-29T03:43:31;34.85;;;6.60;;
62679;SDS011;68213;40.528;44.712;2023-05-29T03:44:32;25.63;;;5.82;;
62679;SDS011;68213;40.528;44.712;2023-05-29T03:45:32;25.83;;;5.65;;
62679;SDS011;68213;40.528;44.712;2023-05-29T03:46:33;31.17;;;5.80;;
62679;SDS011;68213;40.528;44.712;2023-05-29T03:47:33;34.47;;;5.60;;
62679;SDS011;68213;40.528;44.712;2023-05-29T03:48:34;27.58;;;5.45;;
62679;SDS011;68213;40.528;44.712;2023-05-29T03:49:35;30.00;;;6.38;;
62679;SDS011;68213;40.528;44.712;2023-05-29T03:50:36;34.83;;;5.53;;
62679;SDS011;68213;40.528;44.712;2023-05-29T03:51:36;26.20;;;5.85;;
62679;SDS011;68213;40.528;44.712;2023-05-29T03:52:38;36.67;;;5.45;;
62679;SDS011;68213;40.528;44.712;2023-05-29T03:53:38;30.88;;;6.30;;
62679;SDS011;68213;40.528;44.712;2023-05-29T03:54:39;27.42;;;5.85;;
62679;SDS011;68213;40.528;44.712;2023-05-29T03:55:40;34.78;;;6.20;;
62679;SDS011;68213;40.528;44.712;2023-05-29T03:56:41;27.88;;;6.07;;
62679;SDS011;68213;40.528;44.712;2023-05-29T03:57:43;34.75;;;6.45;;
62679;SDS011;68213;40.528;44.712;2023-05-29T03:58:43;31.38;;;6.20;;
62679;SDS011;68213;40.528;44.712;2023-05-29T03:59:44;34.38;;;5.18;;
62679;SDS011;68213;40.528;44.712;2023-05-29T04:00:44;34.33;;;5.55;;
62679;SDS011;68213;40.528;44.712;2023-05-29T04:01:45;29.48;;;5.75;;
62679;SDS011;68213;40.528;44.712;2023-05-29T04:02:46;25.88;;;4.95;;
62679;SDS011;68213;40.528;44.712;2023-05-29T04:03:47;33.33;;;5.88;;
62679;SDS011;68213;40.528;44.712;2023-05-29T04:04:47;36.88;;;6.03;;
62679;SDS011;68213;40.528;44.712;2023-05-29T04:05:49;32.63;;;5.25;;
62679;SDS011;68213;40.528;44.712;2023-05-29T04:06:52;35.50;;;5.45;;
62679;SDS011;68213;40.528;44.712;2023-05-29T04:07:53;25.80;;;5.63;;
62679;SDS011;68213;40.528;44.712;2023-05-29T04:08:53;28.05;;;5.45;;
62679;SDS011;68213;40.528;44.712;2023-05-29T04:09:56;18.75;;;4.90;;
62679;SDS011;68213;40.528;44.712;2023-05-29T04:10:57;31.63;;;4.95;;
62679;SDS011;68213;40.528;44.712;2023-05-29T04:11:58;31.10;;;4.72;;
62679;SDS011;68213;40.528;44.712;2023-05-29T04:13:02;35.90;;;5.35;;
62679;SDS011;68213;40.528;44.712;2023-05-29T04:14:05;27.48;;;5.28;;
62679;SDS011;68213;40.528;44.712;2023-05-29T04:15:06;19.42;;;4.82;;
62679;SDS011;68213;40.528;44.712;2023-05-29T04:16:07;28.73;;;5.95;;
62679;SDS011;68213;40.528;44.712;2023-05-29T04:17:08;37.25;;;5.50;;
62679;SDS011;68213;40.528;44.712;2023-05-29T04:18:08;28.00;;;4.65;;
62679;SDS011;68213;40.528;44.712;2023-05-29T04:19:09;32.70;;;5.63;;
62679;SDS011;68213;40.528;44.712;2023-05-29T04:20:10;23.65;;;5.03;;
62679;SDS011;68213;40.528;44.712;2023-05-29T04:21:14;30.75;;;5.93;;
62679;SDS011;68213;40.528;44.712;2023-05-29T04:22:15;29.90;;;5.45;;
62679;SDS011;68213;40.528;44.712;2023-05-29T04:23:16;22.08;;;3.90;;
62679;SDS011;68213;40.528;44.712;2023-05-29T04:24:17;24.50;;;4.40;;
62679;SDS011;68213;40.528;44.712;2023-05-29T04:26:21;20.17;;;5.13;;
62679;SDS011;68213;40.528;44.712;2023-05-29T04:27:25;24.88;;;4.05;;
62679;SDS011;68213;40.528;44.712;2023-05-29T04:28:29;30.27;;;4.00;;
62679;SDS011;68213;40.528;44.712;2023-05-29T04:29:31;19.10;;;4.00;;
62679;SDS011;68213;40.528;44.712;2023-05-29T04:30:34;22.90;;;3.78;;
62679;SDS011;68213;40.528;44.712;2023-05-29T04:31:35;26.50;;;4.03;;
62679;SDS011;68213;40.528;44.712;2023-05-29T04:32:39;25.52;;;5.15;;
62679;SDS011;68213;40.528;44.712;2023-05-29T04:33:41;22.77;;;4.15;;
62679;SDS011;68213;40.528;44.712;2023-05-29T04:34:45;26.35;;;3.80;;
62679;SDS011;68213;40.528;44.712;2023-05-29T04:35:46;22.88;;;3.42;;
62679;SDS011;68213;40.528;44.712;2023-05-29T04:36:48;26.48;;;4.55;;
62679;SDS011;68213;40.528;44.712;2023-05-29T04:37:49;26.23;;;3.80;;
62679;SDS011;68213;40.528;44.712;2023-05-29T04:38:49;29.15;;;4.28;;
62679;SDS011;68213;40.528;44.712;2023-05-29T04:39:51;23.80;;;3.63;;
62679;SDS011;68213;40.528;44.712;2023-05-29T04:40:52;17.00;;;4.20;;
62679;SDS011;68213;40.528;44.712;2023-05-29T04:41:57;23.52;;;3.63;;
62679;SDS011;68213;40.528;44.712;2023-05-29T04:43:01;21.55;;;4.47;;
62679;SDS011;68213;40.528;44.712;2023-05-29T04:44:02;19.50;;;3.50;;
62679;SDS011;68213;40.528;44.712;2023-05-29T04:45:04;31.05;;;3.85;;
62679;SDS011;68213;40.528;44.712;2023-05-29T04:46:05;19.48;;;4.57;;
62679;SDS011;68213;40.528;44.712;2023-05-29T04:47:07;32.40;;;4.45;;
62679;SDS011;68213;40.528;44.712;2023-05-29T04:48:08;21.65;;;3.42;;
62679;SDS011;68213;40.528;44.712;2023-05-29T04:49:08;24.45;;;4.00;;
62679;SDS011;68213;40.528;44.712;2023-05-29T04:50:10;27.70;;;3.92;;
62679;SDS011;68213;40.528;44.712;2023-05-29T04:51:14;21.33;;;3.70;;
62679;SDS011;68213;40.528;44.712;2023-05-29T04:52:16;24.70;;;4.45;;
62679;SDS011;68213;40.528;44.712;2023-05-29T04:53:17;21.67;;;3.80;;
62679;SDS011;68213;40.528;44.712;2023-05-29T04:54:18;21.10;;;3.78;;
62679;SDS011;68213;40.528;44.712;2023-05-29T04:55:19;24.95;;;4.15;;
62679;SDS011;68213;40.528;44.712;2023-05-29T04:56:21;27.25;;;4.32;;
62679;SDS011;68213;40.528;44.712;2023-05-29T04:57:22;24.20;;;4.20;;
62679;SDS011;68213;40.528;44.712;2023-05-29T04:58:25;28.77;;;4.32;;
62679;SDS011;68213;40.528;44.712;2023-05-29T04:59:26;35.22;;;4.55;;
62679;SDS011;68213;40.528;44.712;2023-05-29T05:00:27;21.02;;;4.07;;
62679;SDS011;68213;40.528;44.712;2023-05-29T05:01:28;23.52;;;4.47;;
62679;SDS011;68213;40.528;44.712;2023-05-29T05:02:32;20.85;;;4.45;;
62679;SDS011;68213;40.528;44.712;2023-05-29T05:03:32;25.63;;;4.50;;
62679;SDS011;68213;40.528;44.712;2023-05-29T05:04:33;27.58;;;4.35;;
62679;SDS011;68213;40.528;44.712;2023-05-29T05:05:37;25.55;;;4.25;;
62679;SDS011;68213;40.528;44.712;2023-05-29T05:06:38;25.63;;;4.03;;
62679;SDS011;68213;40.528;44.712;2023-05-29T05:07:39;20.95;;;3.40;;
62679;SDS011;68213;40.528;44.712;2023-05-29T05:08:40;20.48;;;3.70;;
62679;SDS011;68213;40.528;44.712;2023-05-29T05:09:40;20.63;;;4.28;;
62679;SDS011;68213;40.528;44.712;2023-05-29T05:10:42;19.85;;;3.97;;
62679;SDS011;68213;40.528;44.712;2023-05-29T05:11:42;25.55;;;3.95;;
62679;SDS011;68213;40.528;44.712;2023-05-29T05:12:43;21.75;;;3.72;;
62679;SDS011;68213;40.528;44.712;2023-05-29T05:13:44;19.92;;;3.97;;
62679;SDS011;68213;40.528;44.712;2023-05-29T05:14:45;21.88;;;5.22;;
62679;SDS011;68213;40.528;44.712;2023-05-29T05:15:45;27.73;;;4.80;;
62679;SDS011;68213;40.528;44.712;2023-05-29T05:16:46;23.55;;;3.63;;
62679;SDS011;68213;40.528;44.712;2023-05-29T05:17:47;22.13;;;4.10;;
62679;SDS011;68213;40.528;44.712;2023-05-29T05:18:47;22.10;;;4.10;;
62679;SDS011;68213;40.528;44.712;2023-05-29T05:19:48;31.48;;;5.22;;
62679;SDS011;68213;40.528;44.712;2023-05-29T05:20:49;23.65;;;4.60;;
62679;SDS011;68213;40.528;44.712;2023-05-29T05:21:50;25.73;;;4.60;;
62679;SDS011;68213;40.528;44.712;2023-05-29T05:22:51;23.77;;;4.30;;
62679;SDS011;68213;40.528;44.712;2023-05-29T05:23:52;25.65;;;4.30;;
62679;SDS011;68213;40.528;44.712;2023-05-29T05:24:55;27.10;;;4.40;;
62679;SDS011;68213;40.528;44.712;2023-05-29T05:25:55;27.13;;;4.03;;
62679;SDS011;68213;40.528;44.712;2023-05-29T05:26:56;24.83;;;4.57;;
62679;SDS011;68213;40.528;44.712;2023-05-29T05:27:56;21.75;;;3.63;;
62679;SDS011;68213;40.528;44.712;2023-05-29T05:28:57;22.88;;;4.03;;
62679;SDS011;68213;40.528;44.712;2023-05-29T05:29:58;40.40;;;4.97;;
62679;SDS011;68213;40.528;44.712;2023-05-29T05:30:58;21.05;;;3.60;;
62679;SDS011;68213;40.528;44.712;2023-05-29T05:31:59;19.90;;;4.03;;
62679;SDS011;68213;40.528;44.712;2023-05-29T05:33:00;28.02;;;3.92;;
62679;SDS011;68213;40.528;44.712;2023-05-29T05:34:00;25.95;;;4.43;;
62679;SDS011;68213;40.528;44.712;2023-05-29T05:35:01;23.55;;;4.60;;
62679;SDS011;68213;40.528;44.712;2023-05-29T05:36:04;27.08;;;4.82;;
62679;SDS011;68213;40.528;44.712;2023-05-29T05:37:05;23.02;;;4.75;;
62679;SDS011;68213;40.528;44.712;2023-05-29T05:38:05;22.88;;;4.55;;
62679;SDS011;68213;40.528;44.712;2023-05-29T05:39:09;31.90;;;5.28;;
62679;SDS011;68213;40.528;44.712;2023-05-29T05:40:10;23.95;;;4.13;;
62679;SDS011;68213;40.528;44.712;2023-05-29T05:41:11;22.48;;;3.90;;
62679;SDS011;68213;40.528;44.712;2023-05-29T05:42:11;27.50;;;3.72;;
62679;SDS011;68213;40.528;44.712;2023-05-29T05:43:12;28.30;;;5.32;;
62679;SDS011;68213;40.528;44.712;2023-05-29T05:44:13;27.05;;;3.83;;
62679;SDS011;68213;40.528;44.712;2023-05-29T05:45:13;23.63;;;4.10;;
62679;SDS011;68213;40.528;44.712;2023-05-29T05:46:14;25.45;;;3.83;;
62679;SDS011;68213;40.528;44.712;2023-05-29T05:47:15;24.30;;;4.38;;
62679;SDS011;68213;40.528;44.712;2023-05-29T05:48:18;21.17;;;4.55;;
62679;SDS011;68213;40.528;44.712;2023-05-29T05:49:22;26.88;;;4.38;;
62679;SDS011;68213;40.528;44.712;2023-05-29T05:50:22;21.58;;;4.10;;
62679;SDS011;68213;40.528;44.712;2023-05-29T05:51:24;26.88;;;3.80;;
62679;SDS011;68213;40.528;44.712;2023-05-29T05:52:25;26.70;;;4.50;;
62679;SDS011;68213;40.528;44.712;2023-05-29T05:53:34;31.13;;;4.93;;
62679;SDS011;68213;40.528;44.712;2023-05-29T05:54:35;32.33;;;5.15;;
62679;SDS011;68213;40.528;44.712;2023-05-29T05:55:38;25.77;;;4.63;;
62679;SDS011;68213;40.528;44.712;2023-05-29T05:56:38;26.17;;;4.43;;
62679;SDS011;68213;40.528;44.712;2023-05-29T05:57:39;28.48;;;4.38;;
62679;SDS011;68213;40.528;44.712;2023-05-29T05:58:40;27.25;;;4.57;;
62679;SDS011;68213;40.528;44.712;2023-05-29T05:59:42;27.17;;;4.60;;
62679;SDS011;68213;40.528;44.712;2023-05-29T06:00:43;27.23;;;4.68;;
62679;SDS011;68213;40.528;44.712;2023-05-29T06:01:44;31.17;;;4.93;;
62679;SDS011;68213;40.528;44.712;2023-05-29T06:02:44;24.63;;;3.97;;
62679;SDS011;68213;40.528;44.712;2023-05-29T06:03:46;22.80;;;4.22;;
62679;SDS011;68213;40.528;44.712;2023-05-29T06:04:46;23.13;;;4.80;;
62679;SDS011;68213;40.528;44.712;2023-05-29T06:05:47;25.75;;;4.85;;
62679;SDS011;68213;40.528;44.712;2023-05-29T06:06:48;19.95;;;4.60;;
62679;SDS011;68213;40.528;44.712;2023-05-29T06:07:48;23.48;;;4.30;;
62679;SDS011;68213;40.528;44.712;2023-05-29T06:08:49;28.52;;;5.25;;
62679;SDS011;68213;40.528;44.712;2023-05-29T06:09:50;28.80;;;4.32;;
62679;SDS011;68213;40.528;44.712;2023-05-29T06:10:50;22.63;;;4.15;;